Time;durP1;ratioP1;P1;durP2;ratioP2;P2;SDS_P1;SDS_P2;PMS_P1;PMS_P2;Temp;Humidity;BMP_temperature;BMP_pressure;BME280_temperature;BME280_humidity;BME280_pressure;Samples;Min_cycle;Max_cycle;Signal;HPM_P1;HPM_P2
2021/03/17 00:00:54;;;;;;;6.30;1.30;;;5.10;81.70;;;;;;4965696;28;20038;-90
2021/03/17 00:03:21;;;;;;;3.13;1.02;;;5.10;81.70;;;;;;4978751;28;20042;-90
2021/03/17 00:05:49;;;;;;;5.10;1.60;;;5.10;81.60;;;;;;4977173;28;20104;-90
2021/03/17 00:08:17;;;;;;;3.00;1.25;;;5.10;81.80;;;;;;4958957;28;20047;-91
2021/03/17 00:10:50;;;;;;;7.25;1.25;;;5.10;81.40;;;;;;4975970;28;20121;-90
2021/03/17 00:13:19;;;;;;;1.15;0.80;;;5.00;81.80;;;;;;4958550;28;20122;-90
2021/03/17 00:15:45;;;;;;;3.90;1.05;;;5.00;81.90;;;;;;4993553;28;20417;-90
2021/03/17 00:18:12;;;;;;;3.53;0.75;;;5.00;82.00;;;;;;5059811;28;20119;-90
2021/03/17 00:20:39;;;;;;;8.55;1.85;;;5.00;82.50;;;;;;5059311;28;20044;-89
2021/03/17 00:23:04;;;;;;;3.97;1.20;;;4.90;82.50;;;;;;5059529;28;20123;-91
2021/03/17 00:25:33;;;;;;;3.95;1.23;;;4.90;82.10;;;;;;5042375;28;20085;-91
2021/03/17 00:28:02;;;;;;;1.90;0.80;;;4.90;82.40;;;;;;4957489;28;20039;-92
2021/03/17 00:30:32;;;;;;;5.03;1.30;;;4.90;82.60;;;;;;5000813;28;20062;-90
2021/03/17 00:32:59;;;;;;;3.10;1.58;;;4.80;82.50;;;;;;4958957;28;20040;-91
2021/03/17 00:35:26;;;;;;;1.63;1.20;;;4.80;82.80;;;;;;4957124;28;20054;-91
2021/03/17 00:37:52;;;;;;;1.90;1.27;;;4.80;83.10;;;;;;4957859;28;20065;-90
2021/03/17 00:40:18;;;;;;;5.13;1.20;;;4.80;82.90;;;;;;4944408;29;20157;-89
2021/03/17 00:42:44;;;;;;;4.53;1.42;;;4.80;82.80;;;;;;4939258;29;20031;-90
2021/03/17 00:45:10;;;;;;;5.43;1.55;;;4.80;82.80;;;;;;4972778;28;20297;-91
2021/03/17 00:47:36;;;;;;;4.25;1.08;;;4.80;82.80;;;;;;4971373;28;20054;-91
2021/03/17 00:50:03;;;;;;;6.70;2.03;;;4.70;83.10;;;;;;4976380;28;20034;-90
2021/03/17 00:52:28;;;;;;;6.88;1.20;;;4.70;83.00;;;;;;4959929;28;20043;-91
2021/03/17 00:54:54;;;;;;;1.67;1.10;;;4.70;83.00;;;;;;4989888;28;20124;-90
2021/03/17 00:57:19;;;;;;;8.93;1.10;;;4.60;83.50;;;;;;4964417;28;20250;-90
2021/03/17 00:59:45;;;;;;;8.70;1.65;;;4.60;84.00;;;;;;4976909;28;20089;-90
2021/03/17 01:02:10;;;;;;;2.97;1.35;;;4.50;83.60;;;;;;4975551;28;20336;-90
2021/03/17 01:04:36;;;;;;;2.42;1.40;;;4.50;84.00;;;;;;5014286;28;20042;-90
2021/03/17 01:07:01;;;;;;;3.33;1.52;;;4.50;84.00;;;;;;4966195;28;20078;-90
2021/03/17 01:09:27;;;;;;;3.25;1.52;;;4.50;84.00;;;;;;4957441;28;20039;-90
2021/03/17 01:11:52;;;;;;;4.32;1.30;;;4.40;84.10;;;;;;4958169;28;20065;-90
2021/03/17 01:14:18;;;;;;;9.43;1.73;;;4.40;84.20;;;;;;4959217;28;20047;-90
2021/03/17 01:16:43;;;;;;;3.03;1.67;;;4.40;84.20;;;;;;5001627;28;20278;-90
2021/03/17 01:19:10;;;;;;;4.20;1.45;;;4.40;84.40;;;;;;4976091;28;20035;-90
2021/03/17 01:21:36;;;;;;;2.70;1.35;;;4.40;84.50;;;;;;4977489;28;20404;-91
2021/03/17 01:24:02;;;;;;;5.05;1.40;;;4.40;84.40;;;;;;4976780;28;20043;-90
2021/03/17 01:26:27;;;;;;;10.80;1.60;;;4.30;84.70;;;;;;4958885;28;20070;-90
2021/03/17 01:28:53;;;;;;;3.17;1.48;;;4.30;84.70;;;;;;4951912;29;20045;-90
2021/03/17 01:31:18;;;;;;;2.85;1.40;;;4.30;84.60;;;;;;4992740;28;20056;-91
2021/03/17 01:33:44;;;;;;;3.78;1.23;;;4.20;84.60;;;;;;5024164;28;20573;-91
2021/03/17 01:36:09;;;;;;;6.35;1.48;;;4.20;84.80;;;;;;4958567;28;20069;-90
2021/03/17 01:38:35;;;;;;;3.17;1.25;;;4.20;84.80;;;;;;5032274;28;20126;-89
2021/03/17 01:41:01;;;;;;;7.70;1.75;;;4.10;84.90;;;;;;5043719;28;20046;-91
2021/03/17 01:43:26;;;;;;;1.05;0.80;;;4.10;85.10;;;;;;4962521;28;20118;-90
2021/03/17 01:45:52;;;;;;;6.95;1.48;;;4.10;85.30;;;;;;5051163;28;20051;-90
2021/03/17 01:48:18;;;;;;;3.72;1.60;;;4.10;85.30;;;;;;5041099;28;20415;-91
2021/03/17 01:50:47;;;;;;;8.18;1.25;;;4.10;85.20;;;;;;5033645;28;20400;-91
2021/03/17 01:53:17;;;;;;;4.43;1.65;;;4.10;85.30;;;;;;4976203;28;20441;-91
2021/03/17 01:55:43;;;;;;;4.22;1.20;;;4.10;85.10;;;;;;5028105;28;20435;-90
2021/03/17 01:58:11;;;;;;;5.43;1.40;;;4.20;85.20;;;;;;4968664;28;20096;-90
2021/03/17 02:00:38;;;;;;;6.22;2.85;;;4.20;85.00;;;;;;5028959;28;20031;-89
2021/03/17 02:03:04;;;;;;;10.35;1.48;;;4.20;85.30;;;;;;4988463;28;20035;-90
2021/03/17 02:05:32;;;;;;;8.52;2.03;;;4.20;84.90;;;;;;4976779;28;20041;-90
2021/03/17 02:08:29;;;;;;;2.40;1.38;;;4.10;85.20;;;;;;5044154;28;20111;-89
2021/03/17 02:10:54;;;;;;;6.82;2.50;;;4.20;85.30;;;;;;4937985;28;20511;-90
2021/03/17 02:13:48;;;;;;;6.63;1.80;;;4.10;85.50;;;;;;4959194;28;20054;-91
2021/03/17 02:16:39;;;;;;;4.25;1.42;;;4.10;85.50;;;;;;5042247;28;20134;-91
2021/03/17 02:19:23;;;;;;;4.55;1.58;;;4.10;86.20;;;;;;5024437;28;20069;-89
2021/03/17 02:22:26;;;;;;;6.38;1.42;;;4.10;86.60;;;;;;5066015;28;20420;-91
2021/03/17 02:24:55;;;;;;;;;;;4.10;87.20;;;;;;4971167;28;20046;-90
2021/03/17 02:27:58;;;;;;;2.38;1.15;;;4.10;87.00;;;;;;4983011;28;19971;-90
2021/03/17 02:30:32;;;;;;;6.18;1.55;;;4.00;87.60;;;;;;5037314;28;20035;-89
2021/03/17 02:33:28;;;;;;;1.98;1.77;;;4.00;87.70;;;;;;4995336;28;20547;-90
2021/03/17 02:36:02;;;;;;;4.55;2.78;;;3.90;88.50;;;;;;4973508;28;20031;-91
2021/03/17 02:38:29;;;;;;;1.88;1.35;;;3.90;88.50;;;;;;4987289;28;20039;-90
2021/03/17 02:40:59;;;;;;;2.22;1.75;;;3.90;88.80;;;;;;4994831;28;20038;-88
2021/03/17 02:43:31;;;;;;;4.53;1.45;;;3.90;88.60;;;;;;4995889;28;20099;-89
2021/03/17 02:46:09;;;;;;;7.97;1.65;;;3.90;88.50;;;;;;4987346;28;20635;-91
2021/03/17 02:48:44;;;;;;;2.65;1.60;;;3.90;88.70;;;;;;4998074;28;20045;-91
2021/03/17 02:51:21;;;;;;;3.78;1.60;;;4.00;89.00;;;;;;4969316;28;20050;-90
2021/03/17 02:53:47;;;;;;;3.05;1.52;;;4.00;88.30;;;;;;5020949;28;20042;-89
2021/03/17 02:56:14;;;;;;;2.65;1.38;;;4.00;88.30;;;;;;4981465;28;20064;-90
2021/03/17 02:58:45;;;;;;;6.93;1.40;;;4.00;88.50;;;;;;4990775;28;20027;-90
2021/03/17 03:01:13;;;;;;;4.22;1.50;;;3.90;89.10;;;;;;4994893;28;20049;-91
2021/03/17 03:03:40;;;;;;;4.10;1.95;;;3.90;89.00;;;;;;4979794;28;20045;-90
2021/03/17 03:06:07;;;;;;;2.25;1.85;;;3.80;89.60;;;;;;4969663;28;20123;-90
2021/03/17 03:08:36;;;;;;;9.63;1.80;;;3.70;89.50;;;;;;5022326;28;20724;-89
2021/03/17 03:11:04;;;;;;;5.32;1.70;;;3.70;89.90;;;;;;5013066;28;20058;-91
2021/03/17 03:13:32;;;;;;;4.05;1.70;;;3.70;90.00;;;;;;4981713;28;20078;-90
2021/03/17 03:15:58;;;;;;;3.08;1.35;;;3.60;90.20;;;;;;4973674;28;20117;-90
2021/03/17 03:18:24;;;;;;;9.35;1.92;;;3.60;90.30;;;;;;4981639;28;20038;-90
2021/03/17 03:20:52;;;;;;;6.15;1.63;;;3.60;90.20;;;;;;4981861;28;20104;-90
2021/03/17 03:23:21;;;;;;;2.60;1.52;;;3.60;90.20;;;;;;5069145;28;20132;-90
2021/03/17 03:25:48;;;;;;;10.10;1.98;;;3.70;90.30;;;;;;5033728;28;20040;-90
2021/03/17 03:28:19;;;;;;;9.27;2.33;;;3.70;90.30;;;;;;5027221;28;20445;-89
2021/03/17 03:30:48;;;;;;;1.75;1.63;;;3.70;90.30;;;;;;4993840;28;20455;-90
2021/03/17 03:33:14;;;;;;;6.93;2.13;;;3.70;90.20;;;;;;4990929;28;20030;-90
2021/03/17 03:35:41;;;;;;;7.20;2.25;;;3.70;90.20;;;;;;4997249;28;20043;-91
2021/03/17 03:38:07;;;;;;;5.90;1.17;;;3.70;90.20;;;;;;5041851;28;20108;-90
2021/03/17 03:40:34;;;;;;;3.50;1.48;;;3.70;90.40;;;;;;5059811;28;20026;-90
2021/03/17 03:42:59;;;;;;;7.32;2.10;;;3.70;90.00;;;;;;4998175;28;20384;-91
2021/03/17 03:45:26;;;;;;;4.68;1.70;;;3.70;90.20;;;;;;4980468;28;20050;-90
2021/03/17 03:47:52;;;;;;;5.50;2.05;;;3.70;90.30;;;;;;4981119;28;20368;-90
2021/03/17 03:50:20;;;;;;;3.55;1.48;;;3.70;90.20;;;;;;4998154;28;20117;-90
2021/03/17 03:53:09;;;;;;;5.22;1.48;;;3.70;90.30;;;;;;5009068;28;20143;-91
2021/03/17 03:55:50;;;;;;;4.97;1.70;;;3.70;90.10;;;;;;5045250;28;20092;-91
2021/03/17 03:58:27;;;;;;;1.90;1.45;;;3.60;90.20;;;;;;4981415;28;20057;-88
2021/03/17 04:00:55;;;;;;;4.70;1.92;;;3.70;90.20;;;;;;5003459;28;20036;-90
2021/03/17 04:03:23;;;;;;;5.18;1.35;;;3.70;90.30;;;;;;5062874;28;20041;-90
2021/03/17 04:05:52;;;;;;;3.03;1.50;;;3.70;90.00;;;;;;5077153;28;20067;-90
2021/03/17 04:08:19;;;;;;;7.07;1.65;;;3.70;90.20;;;;;;4961534;28;20042;-91
2021/03/17 04:10:58;;;;;;;4.03;1.65;;;3.70;90.10;;;;;;4978298;28;20097;-90
2021/03/17 04:13:26;;;;;;;8.88;1.55;;;3.80;90.10;;;;;;4977600;28;20378;-91
2021/03/17 04:15:57;;;;;;;8.38;1.77;;;3.70;90.00;;;;;;4973615;28;20069;-90
2021/03/17 04:18:26;;;;;;;5.15;1.88;;;3.70;90.00;;;;;;4969965;28;20347;-91
2021/03/17 04:20:54;;;;;;;4.28;2.15;;;3.70;90.30;;;;;;5024666;28;20111;-90
2021/03/17 04:23:24;;;;;;;2.30;1.58;;;3.70;90.50;;;;;;4987260;28;20104;-91
2021/03/17 04:25:53;;;;;;;3.75;1.63;;;3.60;90.70;;;;;;4973784;28;20053;-91
2021/03/17 04:28:23;;;;;;;6.18;1.60;;;3.60;90.90;;;;;;4977411;28;20038;-91
2021/03/17 04:30:50;;;;;;;6.57;1.70;;;3.70;90.80;;;;;;4971614;28;20050;-90
2021/03/17 04:33:19;;;;;;;6.35;2.03;;;3.60;90.90;;;;;;4970327;28;20131;-91
2021/03/17 04:35:46;;;;;;;5.07;2.15;;;3.60;90.90;;;;;;4987674;28;20064;-91
2021/03/17 04:38:14;;;;;;;2.63;1.52;;;3.60;91.10;;;;;;4974716;28;20039;-91
2021/03/17 04:40:41;;;;;;;6.63;2.00;;;3.60;91.10;;;;;;4977972;28;20050;-90
2021/03/17 04:43:07;;;;;;;5.43;1.50;;;3.60;91.20;;;;;;4978166;28;20038;-90
2021/03/17 04:45:33;;;;;;;4.90;1.70;;;3.70;90.90;;;;;;4999830;28;20036;-91
2021/03/17 04:47:59;;;;;;;3.88;1.80;;;3.70;90.80;;;;;;5012302;28;20091;-90
2021/03/17 04:50:26;;;;;;;3.28;1.55;;;3.70;90.70;;;;;;4989189;28;20379;-91
2021/03/17 04:52:52;;;;;;;4.10;1.98;;;3.70;90.90;;;;;;4995779;28;20128;-90
2021/03/17 04:55:18;;;;;;;5.53;2.08;;;3.70;91.10;;;;;;5006388;28;20112;-90
2021/03/17 04:57:46;;;;;;;3.03;1.48;;;3.70;91.30;;;;;;4979788;28;20050;-90
2021/03/17 05:00:19;;;;;;;6.10;1.50;;;3.70;91.50;;;;;;4974554;28;20030;-89
2021/03/17 05:02:47;;;;;;;;;;;3.60;91.70;;;;;;4979898;28;20048;-89
2021/03/17 05:05:13;;;;;;;6.18;1.55;;;3.60;91.80;;;;;;4970912;28;19910;-91
2021/03/17 05:07:42;;;;;;;3.70;1.98;;;3.50;91.90;;;;;;4968136;28;20043;-90
2021/03/17 05:10:10;;;;;;;7.57;2.30;;;3.50;92.20;;;;;;4960698;28;20606;-90
2021/03/17 05:12:41;;;;;;;4.03;1.85;;;3.50;92.30;;;;;;4959913;28;20339;-90
2021/03/17 05:15:08;;;;;;;8.00;2.47;;;3.50;92.40;;;;;;4973722;28;20048;-89
2021/03/17 05:17:38;;;;;;;11.85;1.95;;;3.50;92.30;;;;;;5002719;28;20123;-90
2021/03/17 05:20:12;;;;;;;8.07;2.60;;;3.40;92.40;;;;;;5060124;28;20172;-90
2021/03/17 05:22:38;;;;;;;3.47;1.55;;;3.50;92.40;;;;;;4971005;28;20038;-88
2021/03/17 05:25:06;;;;;;;3.35;2.30;;;3.50;92.50;;;;;;4975299;28;20038;-91
2021/03/17 05:27:35;;;;;;;7.47;2.22;;;3.50;92.40;;;;;;4975262;28;20046;-90
2021/03/17 05:30:04;;;;;;;3.83;1.88;;;3.60;92.40;;;;;;4975823;28;20061;-89
2021/03/17 05:32:32;;;;;;;3.70;1.52;;;3.60;92.40;;;;;;4977273;28;20050;-89
2021/03/17 05:34:59;;;;;;;6.53;1.90;;;3.60;92.30;;;;;;4981217;28;20035;-90
2021/03/17 05:37:26;;;;;;;1.92;1.70;;;3.60;92.20;;;;;;4956244;28;20043;-91
2021/03/17 05:39:53;;;;;;;7.60;1.92;;;3.60;91.90;;;;;;4965296;28;20124;-90
2021/03/17 05:42:20;;;;;;;7.15;2.08;;;3.60;91.80;;;;;;5005029;28;20039;-91
2021/03/17 05:44:49;;;;;;;4.38;1.70;;;3.60;91.70;;;;;;4957877;28;20043;-89
2021/03/17 05:47:17;;;;;;;5.28;1.52;;;3.70;91.60;;;;;;4965150;28;20121;-89
2021/03/17 05:49:43;;;;;;;9.20;1.92;;;3.60;91.30;;;;;;4963242;28;20038;-88
2021/03/17 05:52:09;;;;;;;7.72;1.92;;;3.60;91.40;;;;;;5005953;28;20453;-86
2021/03/17 05:54:35;;;;;;;9.98;1.95;;;3.60;91.20;;;;;;4961202;28;20043;-88
2021/03/17 05:57:02;;;;;;;7.72;2.00;;;3.50;91.30;;;;;;4956494;28;20039;-88
2021/03/17 05:59:30;;;;;;;7.00;1.88;;;3.50;91.50;;;;;;4952875;28;20059;-88
2021/03/17 06:01:56;;;;;;;3.67;1.55;;;3.50;91.70;;;;;;4954542;28;20094;-88
2021/03/17 06:04:28;;;;;;;2.95;1.70;;;3.50;91.70;;;;;;4957797;28;20048;-88
2021/03/17 06:06:57;;;;;;;6.53;2.25;;;3.50;91.80;;;;;;5005002;28;20055;-87
2021/03/17 06:09:25;;;;;;;8.95;2.78;;;3.40;92.10;;;;;;4972242;28;20564;-88
2021/03/17 06:11:51;;;;;;;5.40;3.03;;;3.30;92.50;;;;;;4971692;28;20101;-88
2021/03/17 06:14:21;;;;;;;12.65;2.63;;;3.30;93.00;;;;;;4979126;28;20070;-88
2021/03/17 06:16:49;;;;;;;10.50;3.97;;;3.20;93.30;;;;;;4981314;28;20099;-87
2021/03/17 06:19:18;;;;;;;9.90;2.88;;;3.20;93.40;;;;;;4962549;28;20061;-88
2021/03/17 06:21:44;;;;;;;8.50;3.28;;;3.10;93.70;;;;;;4952088;28;20405;-88
2021/03/17 06:24:10;;;;;;;7.78;3.00;;;3.00;93.90;;;;;;5052631;28;20134;-88
2021/03/17 06:26:39;;;;;;;6.07;2.63;;;3.00;94.20;;;;;;4962500;28;20035;-88
2021/03/17 06:29:04;;;;;;;6.18;2.78;;;2.90;94.20;;;;;;5026346;28;20058;-88
2021/03/17 06:31:31;;;;;;;9.75;2.95;;;3.00;94.30;;;;;;5074379;28;20050;-88
2021/03/17 06:33:56;;;;;;;4.25;2.92;;;3.00;94.40;;;;;;4976948;28;20047;-88
2021/03/17 06:36:24;;;;;;;7.72;3.15;;;2.90;94.40;;;;;;4978614;28;20092;-88
2021/03/17 06:39:02;;;;;;;4.93;3.05;;;2.90;94.50;;;;;;4957191;28;20104;-88
2021/03/17 06:41:42;;;;;;;8.35;3.85;;;2.90;94.60;;;;;;5023647;28;20031;-88
2021/03/17 06:44:08;;;;;;;8.07;3.28;;;2.90;94.70;;;;;;5070169;28;20039;-87
2021/03/17 06:46:34;;;;;;;9.82;3.15;;;2.90;94.80;;;;;;4977037;28;20046;-87
2021/03/17 06:48:59;;;;;;;6.95;3.33;;;2.90;94.70;;;;;;5037382;28;20050;-87
2021/03/17 06:51:29;;;;;;;5.70;3.72;;;3.00;94.70;;;;;;5034959;28;20051;-87
2021/03/17 06:54:00;;;;;;;7.82;4.22;;;3.00;94.50;;;;;;4948100;28;20569;-87
2021/03/17 06:56:33;;;;;;;9.30;4.50;;;3.10;94.50;;;;;;5043311;28;20038;-88
2021/03/17 06:59:02;;;;;;;7.32;4.60;;;3.10;94.60;;;;;;5041246;28;20282;-87
2021/03/17 07:01:46;;;;;;;7.20;4.40;;;3.10;94.40;;;;;;4975719;28;20117;-88
2021/03/17 07:04:12;;;;;;;6.53;4.10;;;3.10;94.30;;;;;;5039987;28;20570;-88
2021/03/17 07:06:40;;;;;;;6.05;3.88;;;3.10;94.40;;;;;;5043584;28;20047;-87
2021/03/17 07:09:18;;;;;;;7.57;4.88;;;3.10;94.40;;;;;;4958615;28;20042;-87
2021/03/17 07:11:46;;;;;;;7.72;4.00;;;3.10;94.50;;;;;;5034682;28;20275;-87
2021/03/17 07:14:12;;;;;;;8.52;4.20;;;3.10;94.40;;;;;;5037511;28;20338;-86
2021/03/17 07:16:47;;;;;;;9.18;4.30;;;3.20;94.50;;;;;;4976400;28;20041;-88
2021/03/17 07:19:34;;;;;;;6.25;3.85;;;3.20;94.40;;;;;;4958105;28;20455;-87
2021/03/17 07:22:07;;;;;;;6.18;4.18;;;3.30;94.40;;;;;;5037029;28;20038;-86
2021/03/17 07:24:34;;;;;;;9.80;4.35;;;3.30;94.40;;;;;;4975406;28;20121;-87
2021/03/17 07:27:11;;;;;;;12.55;4.60;;;3.40;94.20;;;;;;4999119;28;20315;-86
2021/03/17 07:29:37;;;;;;;4.43;4.03;;;3.40;94.10;;;;;;5044958;28;20050;-86
2021/03/17 07:32:02;;;;;;;6.30;3.55;;;3.40;94.00;;;;;;5024088;28;20384;-86
2021/03/17 07:34:28;;;;;;;11.43;3.75;;;3.50;93.80;;;;;;5023789;28;20039;-86
2021/03/17 07:37:03;;;;;;;10.93;4.72;;;3.50;93.80;;;;;;5042591;28;20296;-87
2021/03/17 07:39:36;;;;;;;7.63;3.35;;;3.50;93.80;;;;;;5024568;28;20043;-86
2021/03/17 07:42:08;;;;;;;8.45;3.22;;;3.50;93.90;;;;;;5023156;28;20040;-86
2021/03/17 07:44:36;;;;;;;9.43;3.00;;;3.50;93.80;;;;;;4967652;28;20066;-87
2021/03/17 07:47:04;;;;;;;9.32;3.53;;;3.60;93.80;;;;;;5036901;28;20050;-87
2021/03/17 07:49:31;;;;;;;4.15;3.00;;;3.60;93.60;;;;;;5033118;28;20341;-87
2021/03/17 07:52:02;;;;;;;8.20;3.17;;;3.70;93.60;;;;;;4972615;28;20081;-87
2021/03/17 07:54:32;;;;;;;10.93;3.53;;;3.80;93.60;;;;;;4956240;28;20067;-87
2021/03/17 07:57:01;;;;;;;5.43;2.63;;;3.90;93.30;;;;;;5032206;28;20160;-86
2021/03/17 07:59:26;;;;;;;6.47;3.08;;;4.00;93.20;;;;;;5055462;28;20455;-88
2021/03/17 08:01:57;;;;;;;6.63;3.10;;;4.00;93.10;;;;;;5022532;28;20039;-88
2021/03/17 08:04:30;;;;;;;10.80;3.17;;;4.00;92.60;;;;;;5035712;28;20050;-88
2021/03/17 08:07:05;;;;;;;6.22;2.63;;;4.00;92.80;;;;;;4971660;28;20039;-87
2021/03/17 08:09:32;;;;;;;7.60;2.38;;;4.00;92.90;;;;;;4960402;28;20050;-87
2021/03/17 08:12:01;;;;;;;7.25;2.15;;;4.00;92.70;;;;;;4956115;28;20043;-87
2021/03/17 08:14:29;;;;;;;6.72;2.30;;;4.10;92.70;;;;;;5025573;28;20427;-87
2021/03/17 08:16:55;;;;;;;14.00;2.28;;;4.10;92.70;;;;;;4957548;28;20035;-88
2021/03/17 08:19:28;;;;;;;5.57;2.00;;;4.10;92.50;;;;;;4971720;28;20049;-88
2021/03/17 08:22:02;;;;;;;6.28;1.65;;;4.10;92.70;;;;;;4960603;28;20127;-86
2021/03/17 08:24:32;;;;;;;3.78;2.08;;;4.00;92.50;;;;;;5037419;28;20044;-86
2021/03/17 08:27:19;;;;;;;6.03;2.17;;;4.00;92.50;;;;;;4983069;28;20042;-86
2021/03/17 08:29:46;;;;;;;9.23;1.83;;;4.10;92.30;;;;;;4975917;28;20054;-86
2021/03/17 08:32:16;;;;;;;6.47;2.00;;;4.10;92.40;;;;;;4966860;28;20038;-86
2021/03/17 08:34:54;;;;;;;5.78;2.50;;;4.00;92.60;;;;;;4966916;28;20035;-86
2021/03/17 08:37:20;;;;;;;38.75;13.57;;;4.00;92.50;;;;;;4975640;28;20034;-86
2021/03/17 08:39:47;;;;;;;14.38;7.93;;;4.00;92.60;;;;;;4977356;28;20092;-87
2021/03/17 08:42:30;;;;;;;8.77;3.78;;;4.00;92.60;;;;;;4992323;28;20037;-87
2021/03/17 08:44:57;;;;;;;;;;;4.10;92.50;;;;;;4993708;28;20070;-86
2021/03/17 08:47:43;;;;;;;3.00;2.10;;;4.00;92.60;;;;;;4979352;28;19910;-85
2021/03/17 08:50:14;;;;;;;12.23;3.75;;;4.00;92.60;;;;;;4977120;28;20123;-86
2021/03/17 08:52:43;;;;;;;9.43;3.03;;;4.00;92.90;;;;;;4976976;28;20038;-87
2021/03/17 08:55:14;;;;;;;4.22;3.13;;;4.00;92.90;;;;;;4994372;28;20103;-87
2021/03/17 08:57:51;;;;;;;7.47;3.60;;;4.10;93.00;;;;;;4969282;28;20325;-89
2021/03/17 09:00:42;;;;;;;9.18;4.28;;;4.10;92.80;;;;;;4958094;28;20122;-88
2021/03/17 09:03:09;;;;;;;10.60;3.67;;;4.10;92.60;;;;;;4959225;28;20046;-89
2021/03/17 09:05:36;;;;;;;10.13;3.80;;;4.10;93.10;;;;;;4959241;28;20058;-89
2021/03/17 09:08:09;;;;;;;6.60;3.47;;;4.20;92.80;;;;;;4964808;28;20605;-90
2021/03/17 09:10:53;;;;;;;7.00;3.75;;;4.20;92.80;;;;;;4957127;28;20154;-90
2021/03/17 09:13:49;;;;;;;9.90;4.13;;;4.20;92.50;;;;;;4988020;28;20046;-90
2021/03/17 09:16:14;;;;;;;7.85;3.85;;;4.30;92.70;;;;;;4996256;28;20030;-91
2021/03/17 09:18:40;;;;;;;4.32;3.55;;;4.30;92.50;;;;;;4979685;28;20053;-91
2021/03/17 09:21:06;;;;;;;13.90;3.75;;;4.40;92.40;;;;;;4972362;28;20066;-90
2021/03/17 09:23:38;;;;;;;8.30;3.58;;;4.40;92.10;;;;;;4989959;28;20039;-91
2021/03/17 09:26:06;;;;;;;;;;;4.40;92.40;;;;;;4970149;28;20051;-90
2021/03/17 09:28:36;;;;;;;10.43;3.70;;;4.40;92.50;;;;;;4969014;28;19914;-90
2021/03/17 09:31:03;;;;;;;5.93;3.45;;;4.50;92.50;;;;;;4961042;28;20039;-91
2021/03/17 09:33:42;;;;;;;9.13;4.10;;;4.40;92.70;;;;;;4960012;28;20104;-91
2021/03/17 09:36:20;;;;;;;15.57;4.43;;;4.50;92.40;;;;;;4962159;28;20288;-91
2021/03/17 09:38:51;;;;;;;10.90;3.33;;;4.50;92.40;;;;;;4984588;28;20039;-90
2021/03/17 09:41:24;;;;;;;3.65;2.47;;;4.60;92.90;;;;;;4968624;28;20046;-91
2021/03/17 09:44:01;;;;;;;8.32;4.43;;;4.70;92.90;;;;;;5060455;28;20397;-91
2021/03/17 09:46:41;;;;;;;6.65;3.90;;;4.80;92.20;;;;;;4954544;28;20137;-91
2021/03/17 09:49:18;;;;;;;35.05;19.17;;;4.90;91.70;;;;;;4968523;28;20050;-92
2021/03/17 09:52:03;;;;;;;22.77;12.75;;;5.00;91.90;;;;;;4985976;28;20103;-91
2021/03/17 09:54:33;;;;;;;16.00;7.15;;;5.10;91.40;;;;;;4995928;28;20034;-91
2021/03/17 09:57:07;;;;;;;43.13;17.13;;;5.20;91.40;;;;;;4967940;28;20568;-91
2021/03/17 09:59:34;;;;;;;25.05;14.90;;;5.20;91.00;;;;;;4959997;28;20038;-91
2021/03/17 10:02:17;;;;;;;15.55;7.90;;;5.30;90.70;;;;;;4963250;28;20368;-92
2021/03/17 10:04:43;;;;;;;;;;;5.30;90.70;;;;;;4969915;28;20366;-92
2021/03/17 10:07:21;;;;;;;23.00;10.05;;;5.30;90.30;;;;;;5060496;28;19998;-92
2021/03/17 10:09:49;;;;;;;8.80;4.40;;;5.30;90.50;;;;;;4959590;28;20047;-90
2021/03/17 10:12:20;;;;;;;8.88;3.90;;;5.20;90.90;;;;;;4979827;28;20378;-91
2021/03/17 10:14:53;;;;;;;9.10;4.00;;;5.10;91.20;;;;;;4979073;28;20085;-91
2021/03/17 10:17:20;;;;;;;6.97;4.20;;;5.20;91.10;;;;;;4978374;28;20096;-91
2021/03/17 10:19:52;;;;;;;13.02;4.10;;;5.20;91.20;;;;;;4978275;28;20104;-92
2021/03/17 10:22:18;;;;;;;11.30;3.60;;;5.30;91.00;;;;;;4994960;28;20121;-91
2021/03/17 10:24:47;;;;;;;11.63;3.88;;;5.30;91.00;;;;;;4978365;28;20039;-90
2021/03/17 10:27:38;;;;;;;7.10;4.22;;;5.40;91.00;;;;;;4994833;28;20135;-92
2021/03/17 10:30:40;;;;;;;7.97;3.40;;;5.50;90.70;;;;;;4947365;28;20039;-91
2021/03/17 10:33:10;;;;;;;9.40;4.20;;;5.60;90.40;;;;;;4948948;28;20078;-91
2021/03/17 10:35:36;;;;;;;8.68;4.25;;;5.60;90.50;;;;;;5039190;28;20409;-90
2021/03/17 10:38:03;;;;;;;14.07;4.80;;;5.70;91.10;;;;;;5039476;28;20039;-89
2021/03/17 10:40:30;;;;;;;7.65;4.20;;;5.90;90.00;;;;;;4955910;28;20424;-88
2021/03/17 10:42:58;;;;;;;11.77;5.22;;;6.00;89.40;;;;;;4956133;29;20062;-90
2021/03/17 10:45:29;;;;;;;9.35;3.97;;;6.10;89.90;;;;;;5039728;28;20046;-90
2021/03/17 10:47:55;;;;;;;8.35;4.60;;;6.20;88.90;;;;;;5056982;28;20146;-90
2021/03/17 10:50:33;;;;;;;14.35;4.53;;;6.30;89.80;;;;;;4986279;28;20122;-90
2021/03/17 10:52:58;;;;;;;7.65;3.47;;;6.30;89.20;;;;;;4938539;28;20475;-90
2021/03/17 10:55:25;;;;;;;15.77;5.13;;;6.30;88.60;;;;;;5039740;28;20047;-91
2021/03/17 10:57:53;;;;;;;9.82;4.53;;;6.20;88.60;;;;;;5039111;28;20040;-91
2021/03/17 11:00:28;;;;;;;10.15;4.43;;;6.30;89.70;;;;;;5040567;28;20039;-91
2021/03/17 11:02:55;;;;;;;14.02;5.35;;;6.30;88.40;;;;;;4947025;28;20046;-92
2021/03/17 11:05:20;;;;;;;7.93;4.78;;;6.30;88.80;;;;;;4967193;28;20034;-91
2021/03/17 11:08:05;;;;;;;9.80;5.53;;;6.30;88.90;;;;;;4974491;28;20053;-91
2021/03/17 11:10:37;;;;;;;13.73;6.60;;;6.30;88.80;;;;;;5082392;28;20362;-90
2021/03/17 11:13:08;;;;;;;13.75;5.68;;;6.30;89.50;;;;;;5066172;28;20046;-90
2021/03/17 11:15:35;;;;;;;13.63;6.50;;;6.40;90.20;;;;;;4981545;28;20102;-90
2021/03/17 11:18:01;;;;;;;21.27;6.60;;;6.50;89.70;;;;;;4959695;28;20046;-89
2021/03/17 11:20:27;;;;;;;11.52;6.57;;;6.60;88.90;;;;;;5018975;28;20034;-90
2021/03/17 11:22:54;;;;;;;14.48;10.45;;;6.60;87.80;;;;;;4961880;28;20031;-89
2021/03/17 11:25:26;;;;;;;10.43;6.35;;;6.70;87.50;;;;;;4994383;28;20122;-91
2021/03/17 11:27:52;;;;;;;10.75;6.15;;;6.70;87.30;;;;;;4961263;28;20045;-90
2021/03/17 11:30:19;;;;;;;13.40;6.82;;;6.70;87.30;;;;;;4978568;28;20188;-90
2021/03/17 11:32:45;;;;;;;10.98;6.20;;;6.80;87.00;;;;;;4960014;28;20039;-91
2021/03/17 11:35:12;;;;;;;8.90;4.65;;;6.80;87.90;;;;;;4942955;29;20043;-91
2021/03/17 11:37:37;;;;;;;10.35;4.72;;;6.90;87.10;;;;;;4971379;28;20064;-90
2021/03/17 11:40:05;;;;;;;13.13;4.68;;;7.00;86.30;;;;;;4974857;28;20459;-89
2021/03/17 11:42:31;;;;;;;7.35;4.93;;;7.10;86.10;;;;;;4987693;28;20301;-91
2021/03/17 11:44:56;;;;;;;7.82;4.50;;;7.20;87.10;;;;;;5003555;28;20034;-90
2021/03/17 11:47:22;;;;;;;9.52;4.90;;;7.20;84.50;;;;;;4972275;28;20042;-91
2021/03/17 11:49:47;;;;;;;12.20;4.70;;;7.20;85.00;;;;;;4960740;28;20039;-91
2021/03/17 11:52:13;;;;;;;12.82;5.25;;;7.10;84.40;;;;;;4961554;28;20046;-92
2021/03/17 11:54:38;;;;;;;8.63;4.82;;;7.10;84.90;;;;;;4961739;28;20062;-91
2021/03/17 11:57:05;;;;;;;12.38;6.03;;;7.00;83.90;;;;;;4950111;28;20036;-90
2021/03/17 11:59:31;;;;;;;9.43;4.38;;;7.00;85.20;;;;;;4993095;28;20046;-91
2021/03/17 12:01:56;;;;;;;10.27;4.43;;;7.00;84.70;;;;;;4971734;28;20099;-91
2021/03/17 12:04:22;;;;;;;8.05;4.35;;;7.00;85.10;;;;;;4997870;28;20392;-91
2021/03/17 12:06:48;;;;;;;7.70;4.32;;;7.00;84.50;;;;;;5010575;28;20042;-91
2021/03/17 12:09:13;;;;;;;7.30;3.92;;;7.00;85.30;;;;;;4961376;28;20049;-91
2021/03/17 12:11:42;;;;;;;9.65;5.15;;;6.90;85.80;;;;;;4961305;28;20065;-91
2021/03/17 12:14:09;;;;;;;11.00;4.15;;;7.00;84.50;;;;;;5010335;28;20042;-91
2021/03/17 12:16:35;;;;;;;8.32;3.90;;;7.10;84.60;;;;;;4969210;28;20046;-92
2021/03/17 12:19:01;;;;;;;9.23;3.75;;;7.10;85.90;;;;;;4961286;28;20039;-92
2021/03/17 12:21:28;;;;;;;11.15;4.28;;;7.20;85.20;;;;;;5061719;28;20084;-91
2021/03/17 12:23:53;;;;;;;6.93;4.20;;;7.20;84.70;;;;;;4977294;28;20058;-91
2021/03/17 12:26:20;;;;;;;7.72;4.00;;;7.40;86.60;;;;;;5079505;28;20043;-92
2021/03/17 12:28:46;;;;;;;7.03;3.60;;;7.50;85.20;;;;;;5083965;28;20068;-90
2021/03/17 12:31:12;;;;;;;9.23;3.92;;;7.70;83.30;;;;;;5080257;28;20043;-91
2021/03/17 12:33:38;;;;;;;7.30;3.72;;;7.90;82.70;;;;;;5076183;28;20046;-92
2021/03/17 12:36:04;;;;;;;5.65;3.83;;;8.00;84.00;;;;;;4961454;28;20111;-92
2021/03/17 12:38:32;;;;;;;9.25;3.40;;;8.10;81.60;;;;;;4961270;28;20035;-92
2021/03/17 12:40:58;;;;;;;5.80;3.08;;;8.10;80.80;;;;;;4973694;28;20039;-91
2021/03/17 12:43:28;;;;;;;4.80;2.75;;;8.00;80.80;;;;;;4958715;28;20042;-92
2021/03/17 12:45:54;;;;;;;7.00;3.40;;;8.00;81.40;;;;;;4983012;28;20030;-92
2021/03/17 12:48:20;;;;;;;6.32;3.08;;;8.00;80.50;;;;;;4961218;28;20292;-90
2021/03/17 12:50:55;;;;;;;7.85;3.75;;;7.90;81.60;;;;;;4971364;28;20038;-92
2021/03/17 12:53:21;;;;;;;6.90;3.88;;;8.00;81.70;;;;;;4976261;28;20035;-91
2021/03/17 12:55:47;;;;;;;8.38;3.20;;;8.00;80.50;;;;;;5058050;28;20054;-92
2021/03/17 12:58:12;;;;;;;5.05;2.97;;;8.00;81.00;;;;;;5044859;28;20042;-91
2021/03/17 13:00:38;;;;;;;6.22;2.88;;;8.00;81.00;;;;;;4970794;28;20042;-92
2021/03/17 13:03:06;;;;;;;6.18;2.70;;;7.90;81.00;;;;;;4965800;28;20129;-90
2021/03/17 13:05:31;;;;;;;5.15;2.80;;;7.90;81.60;;;;;;4962408;28;20034;-90
2021/03/17 13:07:58;;;;;;;7.20;2.50;;;8.00;82.20;;;;;;5003696;28;20051;-91